Time;durP1;ratioP1;P1;durP2;ratioP2;P2;SDS_P1;SDS_P2;PMS_P1;PMS_P2;Temp;Humidity;BMP_temperature;BMP_pressure;BME280_temperature;BME280_humidity;BME280_pressure;Samples;Min_cycle;Max_cycle;Signal;HPM_P1;HPM_P2
2021/03/11 00:00:42;;;;;;;27.03;16.50;;;6.50;99.90;;;;;;4995527;28;20418;-84
2021/03/11 00:03:10;;;;;;;31.83;18.30;;;6.50;99.90;;;;;;5012378;28;20512;-84
2021/03/11 00:05:36;;;;;;;27.57;16.43;;;6.40;99.90;;;;;;5012338;28;20852;-85
2021/03/11 00:08:03;;;;;;;27.03;16.03;;;6.40;99.90;;;;;;5012206;28;20465;-84
2021/03/11 00:10:29;;;;;;;26.73;18.03;;;6.40;99.90;;;;;;5013042;28;20500;-84
2021/03/11 00:12:55;;;;;;;23.83;14.37;;;6.40;99.90;;;;;;5012009;28;20506;-84
2021/03/11 00:15:23;;;;;;;17.63;12.87;;;6.30;99.90;;;;;;4979477;28;20949;-84
2021/03/11 00:17:49;;;;;;;32.10;17.83;;;6.30;99.90;;;;;;4995895;28;20422;-87
2021/03/11 00:20:17;;;;;;;24.70;15.27;;;6.30;99.90;;;;;;5013835;28;20414;-85
2021/03/11 00:22:43;;;;;;;30.70;19.13;;;6.20;99.90;;;;;;5013950;28;20420;-84
2021/03/11 00:25:11;;;;;;;29.10;18.40;;;6.30;99.90;;;;;;5013128;28;20508;-89
2021/03/11 00:27:37;;;;;;;22.67;13.37;;;6.20;99.90;;;;;;4996507;28;20242;-85
2021/03/11 00:30:05;;;;;;;32.13;19.50;;;6.20;99.90;;;;;;5013925;28;20918;-86
2021/03/11 00:32:31;;;;;;;25.93;17.07;;;6.20;99.90;;;;;;5013572;28;20481;-84
2021/03/11 00:34:57;;;;;;;25.87;17.90;;;6.20;99.90;;;;;;5013682;28;21150;-84
2021/03/11 00:37:23;;;;;;;27.47;17.57;;;6.20;99.90;;;;;;5013615;28;20198;-83
2021/03/11 00:39:48;;;;;;;24.90;14.97;;;6.10;99.90;;;;;;4997651;28;20744;-89
2021/03/11 00:42:14;;;;;;;29.87;16.83;;;6.20;99.90;;;;;;5014106;28;20183;-86
2021/03/11 00:44:39;;;;;;;31.67;16.67;;;6.10;99.90;;;;;;5014104;28;20249;-87
2021/03/11 00:47:06;;;;;;;27.97;18.30;;;6.10;99.90;;;;;;5014109;28;20211;-86
2021/03/11 00:49:32;;;;;;;28.93;18.73;;;6.10;99.90;;;;;;4995722;28;20631;-90
2021/03/11 00:51:58;;;;;;;32.77;21.00;;;6.10;99.90;;;;;;4995692;28;20773;-88
2021/03/11 00:54:28;;;;;;;25.10;14.40;;;6.10;99.90;;;;;;5015456;28;20421;-86
2021/03/11 00:56:54;;;;;;;23.13;16.63;;;6.10;99.90;;;;;;5012861;28;20189;-88
2021/03/11 00:59:21;;;;;;;31.70;18.90;;;6.10;99.90;;;;;;5014932;28;20504;-85
2021/03/11 01:01:47;;;;;;;34.50;21.10;;;6.10;99.90;;;;;;5013063;28;20517;-86
2021/03/11 01:04:13;;;;;;;26.37;13.27;;;6.10;99.90;;;;;;4996579;28;20422;-86
2021/03/11 01:06:39;;;;;;;30.07;19.70;;;6.10;99.90;;;;;;5014530;28;20428;-86
2021/03/11 01:09:05;;;;;;;31.43;18.43;;;6.10;99.90;;;;;;4996052;28;20942;-86
2021/03/11 01:11:31;;;;;;;34.27;19.67;;;6.00;99.90;;;;;;5013756;28;20416;-86
2021/03/11 01:13:57;;;;;;;32.97;20.87;;;6.10;99.90;;;;;;4996014;28;20179;-88
2021/03/11 01:16:23;;;;;;;32.03;19.60;;;6.00;99.90;;;;;;5012404;28;20464;-88
2021/03/11 01:18:49;;;;;;;32.23;17.97;;;6.00;99.90;;;;;;4996419;28;20418;-86
2021/03/11 01:21:15;;;;;;;27.30;16.67;;;6.00;99.90;;;;;;5014469;28;20417;-85
2021/03/11 01:23:40;;;;;;;31.03;17.87;;;6.00;99.90;;;;;;5011943;28;20209;-85
2021/03/11 01:26:06;;;;;;;29.70;18.93;;;5.90;99.90;;;;;;5012270;28;20181;-86
2021/03/11 01:28:31;;;;;;;35.23;20.87;;;5.90;99.90;;;;;;5014612;28;20277;-90
2021/03/11 01:30:57;;;;;;;28.80;15.77;;;6.00;99.90;;;;;;5012657;28;20271;-85
2021/03/11 01:33:23;;;;;;;30.50;18.73;;;5.90;99.90;;;;;;5013599;28;20246;-91
2021/03/11 01:35:49;;;;;;;29.33;16.00;;;5.90;99.90;;;;;;5015624;28;20167;-92
2021/03/11 01:38:15;;;;;;;27.40;17.40;;;5.90;99.90;;;;;;4997203;28;20198;-85
2021/03/11 01:40:40;;;;;;;33.77;18.20;;;5.90;99.90;;;;;;5014116;28;20508;-85
2021/03/11 01:43:06;;;;;;;20.60;12.60;;;5.80;99.90;;;;;;4996046;28;20584;-87
2021/03/11 01:45:32;;;;;;;30.30;19.60;;;5.80;99.90;;;;;;5014515;28;20171;-85
2021/03/11 01:47:57;;;;;;;23.30;15.30;;;5.80;99.90;;;;;;5013888;28;20207;-86
2021/03/11 01:50:23;;;;;;;21.83;15.23;;;5.70;99.90;;;;;;5015846;28;20282;-89
2021/03/11 01:52:50;;;;;;;25.60;17.33;;;5.80;99.90;;;;;;5011505;28;20179;-87
2021/03/11 01:55:19;;;;;;;28.23;17.97;;;5.70;99.90;;;;;;5012707;28;20535;-87
2021/03/11 01:57:47;;;;;;;37.33;13.60;;;5.70;99.90;;;;;;4995890;28;20429;-86
2021/03/11 02:00:14;;;;;;;18.57;12.27;;;5.70;99.90;;;;;;5014566;28;20480;-89
2021/03/11 02:02:41;;;;;;;19.60;11.70;;;5.70;99.90;;;;;;5013739;28;20418;-85
2021/03/11 02:05:09;;;;;;;23.53;13.93;;;5.70;99.90;;;;;;5014525;28;20504;-87
2021/03/11 02:07:35;;;;;;;19.17;12.57;;;5.70;99.90;;;;;;5000189;28;20462;-85
2021/03/11 02:10:00;;;;;;;21.60;13.40;;;5.70;99.90;;;;;;5015130;28;20420;-92
2021/03/11 02:12:53;;;;;;;32.07;16.17;;;5.70;99.90;;;;;;5016608;28;20902;-87
2021/03/11 02:15:27;;;;;;;23.37;13.00;;;5.70;99.90;;;;;;4996901;28;20181;-88
2021/03/11 02:18:01;;;;;;;20.10;15.37;;;5.70;99.90;;;;;;5014899;28;20802;-91
2021/03/11 02:20:51;;;;;;;26.10;16.00;;;5.70;99.90;;;;;;5014083;28;20407;-85
2021/03/11 02:24:00;;;;;;;27.13;14.53;;;5.60;99.90;;;;;;5017069;28;20420;-91
2021/03/11 02:26:50;;;;;;;26.77;14.57;;;5.70;99.90;;;;;;5019510;28;20417;-85
2021/03/11 02:29:45;;;;;;;18.80;10.90;;;5.70;99.90;;;;;;5002619;28;20469;-85
2021/03/11 02:32:12;;;;;;;23.27;15.20;;;5.80;99.90;;;;;;4995952;28;20466;-92
2021/03/11 02:34:51;;;;;;;23.77;15.43;;;5.60;99.90;;;;;;4999645;28;20414;-92
2021/03/11 02:37:40;;;;;;;23.90;15.17;;;5.60;99.90;;;;;;4998212;28;20413;-88
2021/03/11 02:40:15;;;;;;;22.00;15.90;;;5.60;99.90;;;;;;4998097;28;20409;-84
2021/03/11 02:42:42;;;;;;;23.80;15.20;;;5.60;99.90;;;;;;4998844;28;20533;-84
2021/03/11 02:45:10;;;;;;;23.60;15.20;;;5.60;99.90;;;;;;4997062;28;20449;-90
2021/03/11 02:47:38;;;;;;;22.57;12.87;;;5.60;99.90;;;;;;4996534;28;20486;-84
2021/03/11 02:50:05;;;;;;;27.80;13.00;;;5.50;99.90;;;;;;4997877;28;20422;-85
2021/03/11 02:52:33;;;;;;;27.67;16.50;;;5.60;99.90;;;;;;4988891;28;20431;-84
2021/03/11 02:55:00;;;;;;;24.90;17.30;;;5.60;99.90;;;;;;5005960;28;20410;-85
2021/03/11 02:57:27;;;;;;;15.30;10.17;;;5.50;99.90;;;;;;5003482;28;20430;-92
2021/03/11 02:59:55;;;;;;;26.53;17.63;;;5.50;99.90;;;;;;4998984;28;20411;-90
2021/03/11 03:02:21;;;;;;;25.17;15.50;;;5.50;99.90;;;;;;4996996;28;20938;-88
2021/03/11 03:04:55;;;;;;;28.63;17.77;;;5.60;99.90;;;;;;4979738;28;20410;-85
2021/03/11 03:07:21;;;;;;;21.27;13.43;;;5.60;99.90;;;;;;4978961;28;20505;-84
2021/03/11 03:09:52;;;;;;;13.40;9.80;;;5.70;99.90;;;;;;4979409;28;20415;-86
2021/03/11 03:12:20;;;;;;;26.77;15.00;;;5.70;99.90;;;;;;4997126;28;20418;-88
2021/03/11 03:14:47;;;;;;;26.47;16.43;;;5.70;99.90;;;;;;4998158;28;20892;-84
2021/03/11 03:17:15;;;;;;;26.60;15.50;;;5.70;99.90;;;;;;4979755;28;20442;-84
2021/03/11 03:19:43;;;;;;;25.50;13.83;;;5.70;99.90;;;;;;4996640;28;20415;-83
2021/03/11 03:22:10;;;;;;;20.87;12.97;;;5.70;99.90;;;;;;4996255;28;20419;-89
2021/03/11 03:24:37;;;;;;;20.23;12.40;;;5.70;99.90;;;;;;4996213;28;20927;-90
2021/03/11 03:27:03;;;;;;;17.03;12.10;;;5.70;99.90;;;;;;4978651;28;20466;-86
2021/03/11 03:29:28;;;;;;;17.53;11.60;;;5.70;99.90;;;;;;4978798;28;20423;-86
2021/03/11 03:31:54;;;;;;;26.90;14.57;;;5.80;99.90;;;;;;5002248;28;20221;-85
2021/03/11 03:34:20;;;;;;;20.00;12.73;;;5.80;99.90;;;;;;5016339;28;20222;-87
2021/03/11 03:36:46;;;;;;;21.27;13.43;;;5.80;99.90;;;;;;5000116;28;20171;-86
2021/03/11 03:39:11;;;;;;;21.83;12.23;;;5.80;99.90;;;;;;5018367;28;20170;-86
2021/03/11 03:41:44;;;;;;;20.23;13.37;;;5.80;99.90;;;;;;4998301;28;20434;-86
2021/03/11 03:44:11;;;;;;;23.90;13.83;;;5.80;99.90;;;;;;5016932;28;20185;-86
2021/03/11 03:46:39;;;;;;;14.90;8.37;;;5.80;99.90;;;;;;4998188;28;20468;-86
2021/03/11 03:49:09;;;;;;;21.30;13.30;;;5.80;99.90;;;;;;4999131;28;20422;-84
2021/03/11 03:51:39;;;;;;;21.13;14.20;;;5.80;99.90;;;;;;4999336;28;20988;-85
2021/03/11 03:54:18;;;;;;;23.50;13.53;;;5.80;99.90;;;;;;5030118;28;20414;-86
2021/03/11 03:56:47;;;;;;;19.20;12.63;;;5.90;99.90;;;;;;5005941;28;20406;-84
2021/03/11 03:59:17;;;;;;;19.00;11.77;;;5.80;99.90;;;;;;5010408;28;20439;-85
2021/03/11 04:01:44;;;;;;;18.03;11.17;;;5.90;99.90;;;;;;5024038;28;20446;-84
2021/03/11 04:04:13;;;;;;;21.10;11.93;;;5.90;99.90;;;;;;5011398;28;20791;-84
2021/03/11 04:06:40;;;;;;;18.80;11.90;;;5.80;99.90;;;;;;5019355;28;20410;-85
2021/03/11 04:09:09;;;;;;;20.73;12.47;;;5.90;99.90;;;;;;5001091;28;20891;-90
2021/03/11 04:11:35;;;;;;;20.90;12.87;;;5.90;99.90;;;;;;5002539;28;20422;-88
2021/03/11 04:14:06;;;;;;;22.37;14.43;;;5.90;99.90;;;;;;5002195;28;20426;-85
2021/03/11 04:16:32;;;;;;;20.77;12.43;;;5.90;99.90;;;;;;5019945;28;20818;-84
2021/03/11 04:18:59;;;;;;;22.70;13.47;;;5.90;99.90;;;;;;5006571;28;20790;-85
2021/03/11 04:21:29;;;;;;;25.77;14.93;;;5.90;99.90;;;;;;5024824;28;20428;-84
2021/03/11 04:23:55;;;;;;;18.60;13.77;;;6.00;99.90;;;;;;5017640;28;20417;-86
2021/03/11 04:26:21;;;;;;;22.63;14.53;;;5.90;99.90;;;;;;5017122;28;20512;-84
2021/03/11 04:28:47;;;;;;;20.93;12.47;;;6.00;99.90;;;;;;5016754;28;20560;-85
2021/03/11 04:31:13;;;;;;;23.50;13.97;;;5.90;99.90;;;;;;5016121;28;20247;-84
2021/03/11 04:33:40;;;;;;;23.43;12.87;;;6.00;99.90;;;;;;5015494;28;20457;-86
2021/03/11 04:36:06;;;;;;;18.13;13.30;;;6.00;99.90;;;;;;5013375;28;20509;-87
2021/03/11 04:38:32;;;;;;;18.80;12.20;;;6.00;99.90;;;;;;5013691;28;20825;-89
2021/03/11 04:40:59;;;;;;;23.10;14.57;;;6.00;99.90;;;;;;5016061;28;20426;-85
2021/03/11 04:43:25;;;;;;;18.00;12.00;;;6.00;99.90;;;;;;5015099;28;20422;-93
2021/03/11 04:45:52;;;;;;;19.37;12.23;;;6.00;99.90;;;;;;4997037;28;20433;-89
2021/03/11 04:48:18;;;;;;;22.43;15.10;;;5.90;99.90;;;;;;4997944;28;20556;-91
2021/03/11 04:50:45;;;;;;;26.20;14.53;;;6.10;99.90;;;;;;5025342;28;20424;-85
2021/03/11 04:53:11;;;;;;;20.10;12.63;;;6.00;99.90;;;;;;5006012;28;20433;-83
2021/03/11 04:55:43;;;;;;;19.33;12.87;;;6.00;99.90;;;;;;5014483;28;20410;-84
2021/03/11 04:58:09;;;;;;;21.57;14.80;;;6.10;99.90;;;;;;4996940;28;20422;-91
2021/03/11 05:00:38;;;;;;;20.37;14.63;;;6.20;99.90;;;;;;4996559;28;20815;-88
2021/03/11 05:03:06;;;;;;;19.80;13.87;;;6.10;99.90;;;;;;4996470;28;20476;-88
2021/03/11 05:05:40;;;;;;;20.57;12.37;;;6.10;99.90;;;;;;4996464;28;20421;-85
2021/03/11 05:08:06;;;;;;;19.43;13.13;;;6.10;99.90;;;;;;4996197;28;20523;-84
2021/03/11 05:10:33;;;;;;;21.80;12.07;;;6.10;99.90;;;;;;4995918;28;20422;-85
2021/03/11 05:12:59;;;;;;;16.50;12.30;;;6.10;99.90;;;;;;4996337;28;20434;-84
2021/03/11 05:15:24;;;;;;;15.37;12.07;;;6.10;99.90;;;;;;5014015;28;20417;-85
2021/03/11 05:17:50;;;;;;;20.43;12.40;;;6.10;99.90;;;;;;5013909;28;20811;-85
2021/03/11 05:20:16;;;;;;;24.03;14.43;;;6.10;99.90;;;;;;5013627;28;20171;-85
2021/03/11 05:22:42;;;;;;;19.13;13.03;;;6.10;99.90;;;;;;5013624;28;20906;-87
2021/03/11 05:25:12;;;;;;;23.00;14.50;;;6.10;99.90;;;;;;5013279;28;20418;-86
2021/03/11 05:27:39;;;;;;;20.33;12.47;;;6.10;99.90;;;;;;4996194;28;21021;-89
2021/03/11 05:30:06;;;;;;;16.53;9.20;;;6.10;99.90;;;;;;4995982;28;20418;-86
2021/03/11 05:32:35;;;;;;;18.50;12.47;;;6.10;99.90;;;;;;4985148;28;20469;-85
2021/03/11 05:35:06;;;;;;;21.53;13.00;;;6.10;99.90;;;;;;4976523;28;20419;-84
2021/03/11 05:37:32;;;;;;;16.23;11.50;;;6.10;99.90;;;;;;4976546;28;20425;-85
2021/03/11 05:39:58;;;;;;;17.47;12.03;;;6.10;99.90;;;;;;4994064;28;20469;-87
2021/03/11 05:42:24;;;;;;;21.50;13.00;;;6.10;99.90;;;;;;4993758;28;20443;-85
2021/03/11 05:44:52;;;;;;;17.23;12.57;;;6.10;99.90;;;;;;4976473;28;20423;-85
2021/03/11 05:47:18;;;;;;;18.27;12.37;;;6.20;99.90;;;;;;4976551;28;20474;-89
2021/03/11 05:49:44;;;;;;;16.73;11.57;;;6.20;99.90;;;;;;4993933;28;20414;-89
2021/03/11 05:52:10;;;;;;;17.70;12.97;;;6.20;99.90;;;;;;4976568;28;20414;-86
2021/03/11 05:54:40;;;;;;;18.70;12.03;;;6.20;99.90;;;;;;4976447;28;20435;-84
2021/03/11 05:57:07;;;;;;;21.33;13.83;;;6.30;99.90;;;;;;4995594;28;20414;-85
2021/03/11 05:59:34;;;;;;;20.33;13.50;;;6.30;99.90;;;;;;4980281;28;20923;-85
2021/03/11 06:02:05;;;;;;;17.50;10.80;;;6.30;99.90;;;;;;4997567;28;20498;-86
2021/03/11 06:04:33;;;;;;;19.37;12.30;;;6.40;99.90;;;;;;4980269;28;20493;-87
2021/03/11 06:06:59;;;;;;;16.50;11.57;;;6.40;99.90;;;;;;4998317;28;20477;-86
2021/03/11 06:09:25;;;;;;;23.20;13.37;;;6.40;99.90;;;;;;4997565;28;20423;-86
2021/03/11 06:11:51;;;;;;;17.93;11.43;;;6.30;99.90;;;;;;4979764;28;20540;-85
2021/03/11 06:14:19;;;;;;;21.40;14.10;;;6.30;99.90;;;;;;4997296;28;20453;-86
2021/03/11 06:16:56;;;;;;;16.13;10.63;;;6.30;99.90;;;;;;4997773;28;20414;-87
2021/03/11 06:19:21;;;;;;;16.90;11.80;;;6.40;99.90;;;;;;4997482;28;20442;-85
2021/03/11 06:21:47;;;;;;;16.63;11.73;;;6.30;99.90;;;;;;4979697;28;20458;-85
2021/03/11 06:24:13;;;;;;;12.63;9.47;;;6.30;99.90;;;;;;4978073;28;20636;-84
2021/03/11 06:26:38;;;;;;;14.60;10.77;;;6.40;99.90;;;;;;4996693;28;20223;-86
2021/03/11 06:29:04;;;;;;;16.47;11.43;;;6.30;99.90;;;;;;4979778;28;20659;-84
2021/03/11 06:31:33;;;;;;;15.43;10.70;;;6.40;99.90;;;;;;4981809;28;20182;-84
2021/03/11 06:34:01;;;;;;;16.90;11.60;;;6.40;99.90;;;;;;4998948;28;20244;-84
2021/03/11 06:36:30;;;;;;;14.53;10.30;;;6.30;99.90;;;;;;5016610;28;20409;-84
2021/03/11 06:38:58;;;;;;;14.83;11.80;;;6.40;99.90;;;;;;5016508;28;20439;-85
2021/03/11 06:41:24;;;;;;;15.67;11.03;;;6.40;99.90;;;;;;5016173;28;20437;-85
2021/03/11 06:43:55;;;;;;;14.83;10.47;;;6.40;99.90;;;;;;4998680;28;20507;-85
2021/03/11 06:46:22;;;;;;;16.50;12.33;;;6.30;99.90;;;;;;4999377;28;20757;-85
2021/03/11 06:48:48;;;;;;;18.37;12.77;;;6.40;99.90;;;;;;5016576;28;20472;-85
2021/03/11 06:51:21;;;;;;;15.23;10.60;;;6.40;99.90;;;;;;5000930;28;20422;-86
2021/03/11 06:53:55;;;;;;;15.33;10.40;;;6.40;99.90;;;;;;4998871;28;20183;-85
2021/03/11 06:56:22;;;;;;;15.77;11.53;;;6.50;99.90;;;;;;4998309;28;20426;-86
2021/03/11 06:59:14;;;;;;;18.00;11.80;;;6.40;99.90;;;;;;5016496;28;20429;-85
2021/03/11 07:01:52;;;;;;;14.80;10.57;;;6.50;99.90;;;;;;5012449;28;20418;-86
2021/03/11 07:04:22;;;;;;;18.40;9.67;;;6.50;99.90;;;;;;5016224;28;20504;-86
2021/03/11 07:06:48;;;;;;;17.07;12.60;;;6.50;99.90;;;;;;5015990;28;20493;-86
2021/03/11 07:09:16;;;;;;;16.00;11.23;;;6.50;99.90;;;;;;4997527;28;20529;-84
2021/03/11 07:11:54;;;;;;;15.67;10.90;;;6.60;99.90;;;;;;4998051;28;20540;-85
2021/03/11 07:14:27;;;;;;;17.03;10.37;;;6.60;99.90;;;;;;5015737;28;20935;-84
2021/03/11 07:16:53;;;;;;;14.00;10.50;;;6.70;99.90;;;;;;4998095;28;20426;-86
2021/03/11 07:19:20;;;;;;;15.93;9.00;;;6.60;99.90;;;;;;5015762;28;20425;-86
2021/03/11 07:21:55;;;;;;;18.00;10.37;;;6.70;99.90;;;;;;5015789;28;20182;-85
2021/03/11 07:24:39;;;;;;;9.23;7.67;;;6.80;99.90;;;;;;5015568;28;20417;-84
2021/03/11 07:27:06;;;;;;;11.43;8.80;;;6.80;99.90;;;;;;5015159;28;20473;-85
2021/03/11 07:29:33;;;;;;;14.93;9.47;;;6.90;99.90;;;;;;5015480;28;20413;-85
2021/03/11 07:32:01;;;;;;;12.10;8.03;;;6.90;99.90;;;;;;5015240;28;20461;-85
2021/03/11 07:34:35;;;;;;;11.50;7.90;;;7.00;99.90;;;;;;5015431;28;20818;-85
2021/03/11 07:37:01;;;;;;;11.70;8.30;;;7.00;99.90;;;;;;4993514;28;20417;-85
2021/03/11 07:39:37;;;;;;;11.30;9.07;;;7.10;99.90;;;;;;5015618;28;20610;-85
2021/03/11 07:42:05;;;;;;;10.73;7.63;;;7.20;99.90;;;;;;5015169;28;20496;-84
2021/03/11 07:44:32;;;;;;;10.30;7.20;;;7.20;99.90;;;;;;4997734;28;20473;-84
2021/03/11 07:47:03;;;;;;;12.43;8.00;;;7.20;99.90;;;;;;5015312;28;20853;-85
2021/03/11 07:49:29;;;;;;;11.23;7.67;;;7.30;99.90;;;;;;5015400;28;20405;-85
2021/03/11 07:51:56;;;;;;;14.97;8.90;;;7.30;99.90;;;;;;4997521;28;21039;-85
2021/03/11 07:54:22;;;;;;;10.03;6.33;;;7.30;99.90;;;;;;5015224;28;20394;-85
2021/03/11 07:56:52;;;;;;;12.20;7.70;;;7.40;99.90;;;;;;5014733;28;20473;-85
2021/03/11 07:59:18;;;;;;;13.30;7.60;;;7.40;99.90;;;;;;4997296;28;20425;-85
2021/03/11 08:02:08;;;;;;;12.87;8.33;;;7.50;99.90;;;;;;4997415;28;20446;-85
2021/03/11 08:04:39;;;;;;;12.83;8.90;;;7.50;99.90;;;;;;4997245;28;20441;-85
2021/03/11 08:07:18;;;;;;;13.20;9.97;;;7.50;99.90;;;;;;4997354;28;20481;-85
2021/03/11 08:09:45;;;;;;;12.73;8.67;;;7.50;99.90;;;;;;5014273;28;20429;-85
2021/03/11 08:12:37;;;;;;;14.70;7.80;;;7.60;99.90;;;;;;5014668;28;20907;-85
2021/03/11 08:15:26;;;;;;;12.20;7.97;;;7.60;99.90;;;;;;4997261;28;20425;-86
2021/03/11 08:17:54;;;;;;;13.20;8.50;;;7.60;99.90;;;;;;5004082;28;20422;-86
2021/03/11 08:20:19;;;;;;;10.90;7.93;;;7.70;99.90;;;;;;4996274;28;20938;-86
2021/03/11 08:22:51;;;;;;;12.00;8.33;;;7.70;99.90;;;;;;4997057;28;20422;-86
2021/03/11 08:25:38;;;;;;;14.03;8.70;;;7.70;99.90;;;;;;4996664;28;20178;-87
2021/03/11 08:28:29;;;;;;;12.90;8.70;;;7.80;99.90;;;;;;5014243;28;20480;-90
2021/03/11 08:31:01;;;;;;;10.17;7.80;;;7.90;99.90;;;;;;5014204;28;20953;-85
2021/03/11 08:33:27;;;;;;;9.50;7.90;;;7.90;99.90;;;;;;5014286;28;20484;-82
2021/03/11 08:35:55;;;;;;;11.27;9.23;;;7.90;99.90;;;;;;5013902;28;20493;-82
2021/03/11 08:38:24;;;;;;;11.17;8.80;;;7.90;99.90;;;;;;5014019;28;20164;-82
2021/03/11 08:41:02;;;;;;;10.80;8.10;;;7.90;99.90;;;;;;5013427;28;20824;-82
2021/03/11 08:43:40;;;;;;;13.67;9.47;;;8.00;99.90;;;;;;5013965;28;20417;-82
2021/03/11 08:46:16;;;;;;;12.33;7.57;;;8.10;99.90;;;;;;5013936;28;20410;-82
2021/03/11 08:49:00;;;;;;;12.20;8.27;;;8.10;99.90;;;;;;5013666;28;20467;-82
2021/03/11 08:51:26;;;;;;;10.20;7.97;;;8.20;99.90;;;;;;5014156;28;20414;-89
2021/03/11 08:53:55;;;;;;;14.93;9.03;;;8.30;99.90;;;;;;5013767;28;20928;-84
2021/03/11 08:56:21;;;;;;;11.57;9.17;;;8.30;99.90;;;;;;5013437;28;20175;-84
2021/03/11 08:59:12;;;;;;;9.67;6.00;;;8.40;99.90;;;;;;5013827;28;20414;-83
2021/03/11 09:01:40;;;;;;;9.37;6.60;;;8.50;99.90;;;;;;5013342;28;20174;-83
2021/03/11 09:04:31;;;;;;;10.23;6.83;;;8.50;99.90;;;;;;5014809;28;20410;-90
2021/03/11 09:07:07;;;;;;;13.93;8.17;;;8.60;99.90;;;;;;4995092;28;20455;-83
2021/03/11 09:09:51;;;;;;;12.43;8.23;;;8.70;99.90;;;;;;5013243;28;20503;-82
2021/03/11 09:12:24;;;;;;;15.43;6.27;;;8.90;99.90;;;;;;5012241;28;20405;-82
2021/03/11 09:14:53;;;;;;;9.50;6.83;;;9.10;99.90;;;;;;4995276;28;20426;-83
2021/03/11 09:17:27;;;;;;;10.03;6.00;;;9.30;99.90;;;;;;4990220;28;20933;-83
2021/03/11 09:20:00;;;;;;;9.17;5.70;;;9.40;99.90;;;;;;4996137;28;20795;-89
2021/03/11 09:22:37;;;;;;;10.30;5.40;;;9.40;99.90;;;;;;5013501;28;20410;-88
2021/03/11 09:25:05;;;;;;;10.37;6.43;;;9.50;99.90;;;;;;4995477;28;20421;-83
2021/03/11 09:27:32;;;;;;;8.20;5.50;;;9.60;99.90;;;;;;5013194;28;20500;-84
2021/03/11 09:30:10;;;;;;;5.10;4.13;;;9.70;99.90;;;;;;5010517;28;20409;-83
2021/03/11 09:32:37;;;;;;;6.47;5.53;;;9.70;99.90;;;;;;5010450;28;20512;-83
2021/03/11 09:35:08;;;;;;;5.83;4.90;;;9.70;99.90;;;;;;5012561;28;20420;-84
2021/03/11 09:38:00;;;;;;;6.00;5.17;;;9.80;99.90;;;;;;5012661;28;20464;-85
2021/03/11 09:40:26;;;;;;;7.60;5.53;;;9.90;99.90;;;;;;5011181;28;20426;-86
2021/03/11 09:43:03;;;;;;;7.50;4.70;;;10.00;99.90;;;;;;5013169;28;20429;-83
2021/03/11 09:45:33;;;;;;;6.13;4.13;;;;;;;;;;5013223;28;20243;-85
2021/03/11 09:48:06;;;;;;;5.73;3.37;;;10.70;99.90;;;;;;5013231;28;20525;-83
2021/03/11 09:50:34;;;;;;;5.90;3.90;;;11.50;99.90;;;;;;5013311;28;20411;-84
2021/03/11 09:53:01;;;;;;;4.53;2.50;;;12.10;99.90;;;;;;5013276;28;20412;-83
2021/03/11 09:55:27;;;;;;;5.13;2.50;;;12.50;99.90;;;;;;5012622;28;20922;-84
2021/03/11 09:57:53;;;;;;;7.63;3.43;;;13.20;87.50;;;;;;5013081;28;20468;-83
2021/03/11 10:00:19;;;;;;;4.10;2.30;;;14.10;25.70;;;;;;5013354;28;20500;-83
2021/03/11 10:02:50;;;;;;;4.60;2.50;;;15.30;1.00;;;;;;5013189;28;20356;-86
2021/03/11 10:05:15;;;;;;;4.40;2.33;;;15.90;1.00;;;;;;5002703;28;20425;-88
2021/03/11 10:07:41;;;;;;;3.30;2.27;;;15.80;1.00;;;;;;5011208;28;20504;-83
2021/03/11 10:10:14;;;;;;;4.77;1.90;;;16.00;1.00;;;;;;5009882;28;20182;-84
2021/03/11 10:12:45;;;;;;;2.90;1.77;;;16.60;1.00;;;;;;5011755;28;20424;-84
2021/03/11 10:15:12;;;;;;;4.10;2.17;;;17.50;1.00;;;;;;5012863;28;20925;-85
2021/03/11 10:17:38;;;;;;;1.80;1.47;;;17.90;99.90;;;;;;5012685;28;20412;-85
2021/03/11 10:20:22;;;;;;;4.80;2.20;;;17.60;99.90;;;;;;5012717;28;20499;-84
2021/03/11 10:22:47;;;;;;;4.63;2.57;;;17.40;99.90;;;;;;4978122;28;20431;-85
2021/03/11 10:25:15;;;;;;;4.50;2.43;;;17.10;99.90;;;;;;5012045;28;20415;-83
2021/03/11 10:27:44;;;;;;;3.50;2.53;;;16.70;99.90;;;;;;5012193;28;20203;-83
2021/03/11 10:30:29;;;;;;;3.63;2.33;;;16.20;99.90;;;;;;5012625;28;20435;-84
2021/03/11 10:33:01;;;;;;;2.80;1.40;;;15.60;1.00;;;;;;5009655;28;20484;-84
2021/03/11 10:35:39;;;;;;;2.50;2.00;;;16.10;1.00;;;;;;5010476;28;20434;-83
2021/03/11 10:38:29;;;;;;;4.00;2.30;;;16.40;99.90;;;;;;5012002;28;20414;-84
2021/03/11 10:41:26;;;;;;;6.40;1.57;;;16.50;1.00;;;;;;5011583;28;20496;-87
2021/03/11 10:44:23;;;;;;;4.17;1.60;;;15.60;1.00;;;;;;4996764;28;20903;-85
2021/03/11 10:46:49;;;;;;;3.17;1.50;;;15.40;1.00;;;;;;5012789;28;20825;-85
2021/03/11 10:49:15;;;;;;;5.80;2.03;;;15.00;1.00;;;;;;5015741;28;20430;-83
2021/03/11 10:51:42;;;;;;;3.20;2.00;;;14.50;1.00;;;;;;5015846;28;20222;-84
2021/03/11 10:54:29;;;;;;;4.90;2.60;;;13.90;1.00;;;;;;5013527;28;20528;-85
2021/03/11 10:57:19;;;;;;;2.27;1.70;;;;;;;;;;5014441;28;20467;-84
2021/03/11 10:59:54;;;;;;;1.53;1.33;;;12.30;49.40;;;;;;5015278;28;20412;-83
2021/03/11 11:02:28;;;;;;;2.40;1.77;;;12.10;87.30;;;;;;5015716;28;20435;-89
2021/03/11 11:04:55;;;;;;;5.23;1.70;;;11.90;97.10;;;;;;5017038;28;20570;-82
2021/03/11 11:07:21;;;;;;;3.63;3.00;;;11.70;99.90;;;;;;5015942;28;20459;-88
2021/03/11 11:09:48;;;;;;;4.40;3.03;;;11.50;99.90;;;;;;5016108;28;20425;-85
2021/03/11 11:12:17;;;;;;;6.67;3.53;;;11.20;99.90;;;;;;5015944;28;20415;-83
2021/03/11 11:14:44;;;;;;;2.00;0.60;;;10.90;99.90;;;;;;5015535;28;20775;-83
2021/03/11 11:17:11;;;;;;;5.43;2.40;;;10.40;99.90;;;;;;5015012;28;20446;-87
2021/03/11 11:19:38;;;;;;;1.97;1.27;;;10.00;99.90;;;;;;4986660;28;20783;-90
2021/03/11 11:22:04;;;;;;;1.93;0.40;;;9.60;99.90;;;;;;4997899;28;20437;-88
2021/03/11 11:24:30;;;;;;;2.07;0.50;;;9.40;99.90;;;;;;4998251;28;20422;-89
2021/03/11 11:26:57;;;;;;;2.47;0.70;;;9.30;99.90;;;;;;4998478;28;20456;-88
2021/03/11 11:29:23;;;;;;;1.33;0.60;;;9.20;99.90;;;;;;5015658;28;20509;-88
2021/03/11 11:31:49;;;;;;;2.43;0.80;;;9.20;99.90;;;;;;4990113;28;20564;-86
2021/03/11 11:34:15;;;;;;;3.13;0.97;;;9.10;99.90;;;;;;4958079;28;20478;-87
2021/03/11 11:36:42;;;;;;;2.77;1.30;;;9.00;99.90;;;;;;4958189;28;20553;-87
2021/03/11 11:39:08;;;;;;;1.80;0.47;;;9.50;99.90;;;;;;4959200;28;20420;-88
2021/03/11 11:41:36;;;;;;;1.83;0.83;;;10.50;99.90;;;;;;4959924;28;20440;-88
2021/03/11 11:44:02;;;;;;;1.33;0.30;;;11.00;99.90;;;;;;4983588;28;20454;-88
2021/03/11 11:46:27;;;;;;;1.47;0.30;;;11.80;99.90;;;;;;4978396;28;20431;-88
2021/03/11 11:48:53;;;;;;;0.90;0.37;;;12.90;99.90;;;;;;4978459;28;20677;-87
2021/03/11 11:51:18;;;;;;;1.37;0.50;;;13.40;80.90;;;;;;4996633;28;20172;-87
2021/03/11 11:53:44;;;;;;;1.20;0.20;;;13.60;67.40;;;;;;4978557;28;20581;-90
2021/03/11 11:56:10;;;;;;;3.80;0.70;;;13.50;45.10;;;;;;4994570;28;20183;-89
2021/03/11 11:58:37;;;;;;;1.90;0.70;;;13.20;41.60;;;;;;4996632;28;20550;-88
2021/03/11 12:01:03;;;;;;;2.60;1.20;;;12.80;72.90;;;;;;4979138;28;20202;-88
2021/03/11 12:03:28;;;;;;;3.63;1.47;;;12.30;99.90;;;;;;4994925;28;20439;-87
2021/03/11 12:05:54;;;;;;;2.03;1.07;;;11.60;99.90;;;;;;4978931;28;20205;-87
2021/03/11 12:08:19;;;;;;;2.77;0.57;;;11.00;99.90;;;;;;4979257;28;20251;-88
2021/03/11 12:10:45;;;;;;;3.20;0.87;;;10.70;99.90;;;;;;4979534;28;20607;-88
2021/03/11 12:13:11;;;;;;;1.63;0.87;;;10.40;99.90;;;;;;4979774;28;20173;-89
2021/03/11 12:15:36;;;;;;;2.90;1.03;;;10.40;99.90;;;;;;4978837;28;20174;-87
2021/03/11 12:18:02;;;;;;;2.87;0.73;;;11.50;99.90;;;;;;4980809;28;20549;-90
2021/03/11 12:20:28;;;;;;;4.30;1.00;;;12.50;99.90;;;;;;4980009;28;20184;-88
2021/03/11 12:22:54;;;;;;;6.10;1.73;;;13.70;99.90;;;;;;4980486;28;21000;-87
2021/03/11 12:25:19;;;;;;;5.13;1.83;;;14.30;99.90;;;;;;4979517;28;20177;-88
2021/03/11 12:27:45;;;;;;;4.87;1.57;;;14.70;95.30;;;;;;4978346;28;20272;-87
2021/03/11 12:30:14;;;;;;;8.03;2.23;;;14.80;26.70;;;;;;4978032;28;20205;-89
2021/03/11 12:32:40;;;;;;;7.43;1.20;;;14.90;8.70;;;;;;5008610;28;20231;-86
2021/03/11 12:35:06;;;;;;;7.10;1.97;;;14.70;1.00;;;;;;4975672;28;20431;-88
2021/03/11 12:37:32;;;;;;;6.53;0.97;;;14.30;1.00;;;;;;5014653;28;20578;-87
2021/03/11 12:39:58;;;;;;;5.57;1.97;;;14.60;1.00;;;;;;4998899;28;20427;-88
2021/03/11 12:42:24;;;;;;;7.97;1.00;;;14.80;1.00;;;;;;4998100;28;20264;-88
2021/03/11 12:44:49;;;;;;;4.00;1.20;;;14.70;1.00;;;;;;4998469;28;20458;-88
2021/03/11 12:47:16;;;;;;;5.67;1.50;;;14.40;1.00;;;;;;4998075;28;20246;-90
2021/03/11 12:49:44;;;;;;;6.90;0.93;;;14.30;1.00;;;;;;4999207;28;20235;-90
2021/03/11 12:52:09;;;;;;;5.30;1.10;;;14.00;1.00;;;;;;5015036;28;20425;-86
2021/03/11 12:54:36;;;;;;;6.47;1.93;;;13.20;1.00;;;;;;4997619;28;20448;-88